Time;durP1;ratioP1;P1;durP2;ratioP2;P2;SDS_P1;SDS_P2;PMS_P1;PMS_P2;Temp;Humidity;BMP_temperature;BMP_pressure;BME280_temperature;BME280_humidity;BME280_pressure;Samples;Min_cycle;Max_cycle;Signal;HPM_P1;HPM_P2
2023/04/10 00:03:47;;;;;;;14.03;12.63;;;;;;;11.67;46.49;98661.66;8414038;28;20224;-72
2023/04/10 00:07:50;;;;;;;13.20;11.90;;;;;;;11.55;46.79;98668.13;8413654;28;20235;-71
2023/04/10 00:11:53;;;;;;;14.27;12.87;;;;;;;11.57;46.15;98664.63;8413536;28;20228;-72
2023/04/10 00:15:57;;;;;;;14.50;13.10;;;;;;;11.57;46.56;98669.81;8413609;28;20228;-72
2023/04/10 00:20:01;;;;;;;14.33;12.93;;;;;;;11.31;47.19;98654.31;8413691;28;20244;-72
2023/04/10 00:24:04;;;;;;;13.97;12.57;;;;;;;11.39;46.75;98645.41;8413556;28;20227;-70
2023/04/10 00:28:06;;;;;;;14.70;13.27;;;;;;;11.45;46.73;98646.03;8413322;28;20220;-70
2023/04/10 00:32:11;;;;;;;15.10;13.60;;;;;;;11.33;46.80;98647.31;8414038;28;20489;-70
2023/04/10 00:36:13;;;;;;;14.90;13.50;;;;;;;11.50;46.77;98636.34;8413434;28;20531;-70
2023/04/10 00:40:16;;;;;;;15.10;13.60;;;;;;;11.19;46.96;98639.19;8412032;28;20243;-70
2023/04/10 00:44:19;;;;;;;13.97;12.57;;;;;;;11.31;47.10;98637.94;8412800;28;20271;-70
2023/04/10 00:48:24;;;;;;;14.27;12.97;;;;;;;11.27;46.82;98634.59;8412180;28;20228;-70
2023/04/10 00:52:26;;;;;;;13.67;12.37;;;;;;;11.23;47.10;98640.78;8412425;28;20246;-70
2023/04/10 00:56:31;;;;;;;14.77;12.60;;;;;;;11.10;46.90;98623.97;8412778;28;20224;-71
2023/04/10 01:00:33;;;;;;;13.57;12.27;;;;;;;11.22;46.57;98631.31;8412086;28;20232;-71
2023/04/10 01:04:38;;;;;;;14.80;13.40;;;;;;;10.74;47.96;98634.75;8412397;28;20272;-71
2023/04/10 01:08:47;;;;;;;13.70;12.40;;;;;;;11.20;46.61;98643.50;8411823;28;20224;-71
2023/04/10 01:13:04;;;;;;;14.27;12.87;;;;;;;10.86;47.40;98634.31;8411696;28;20231;-71
2023/04/10 01:17:08;;;;;;;13.57;12.27;;;;;;;10.86;47.43;98625.69;8411158;28;20216;-70
2023/04/10 01:21:14;;;;;;;14.13;12.77;;;;;;;10.91;47.33;98622.03;8411453;28;20227;-71
2023/04/10 01:25:38;;;;;;;13.47;12.07;;;;;;;10.92;47.30;98631.50;8411668;28;20235;-71
2023/04/10 01:29:46;;;;;;;13.93;12.63;;;;;;;10.88;47.75;98639.44;8411436;28;20238;-71
2023/04/10 01:33:51;;;;;;;13.00;11.80;;;;;;;10.98;47.42;98638.22;8411105;28;20227;-71
2023/04/10 01:37:55;;;;;;;13.67;12.37;;;;;;;10.87;47.41;98641.19;8411138;28;20246;-71
2023/04/10 01:41:59;;;;;;;13.20;12.00;;;;;;;10.84;46.90;98640.47;8410739;28;20231;-71
2023/04/10 01:46:04;;;;;;;13.40;12.10;;;;;;;10.79;47.18;98647.53;8411047;28;20231;-71
2023/04/10 01:50:08;;;;;;;14.27;12.87;;;;;;;10.75;47.14;98646.78;8410557;28;20222;-70
2023/04/10 01:54:10;;;;;;;13.87;12.57;;;;;;;10.61;47.37;98649.00;8411121;28;20369;-71
2023/04/10 01:58:14;;;;;;;13.97;12.57;;;;;;;10.72;47.26;98646.91;8411069;28;20245;-71
2023/04/10 02:02:23;;;;;;;14.17;12.67;;;;;;;10.66;47.34;98637.59;8410780;28;20244;-70
2023/04/10 02:06:30;;;;;;;13.40;12.10;;;;;;;10.51;47.55;98636.38;8410016;28;20242;-71
2023/04/10 02:10:43;;;;;;;14.20;12.80;;;;;;;10.47;47.52;98632.19;8410801;28;20260;-71
2023/04/10 02:14:47;;;;;;;13.77;12.37;;;;;;;10.44;46.96;98639.22;8411325;28;20246;-71
2023/04/10 02:18:51;;;;;;;12.47;11.37;;;;;;;10.27;46.99;98630.22;8410486;28;20220;-70
2023/04/10 02:22:55;;;;;;;13.33;11.63;;;;;;;10.11;47.22;98623.81;8410049;28;20233;-70
2023/04/10 02:26:57;;;;;;;13.03;11.73;;;;;;;10.00;47.96;98624.19;8410299;28;20274;-70
2023/04/10 02:31:00;;;;;;;13.10;11.83;;;;;;;9.71;47.68;98570.75;8410209;28;20426;-70
2023/04/10 02:35:05;;;;;;;13.50;12.10;;;;;;;10.06;47.74;98625.75;8410162;28;20223;-71
2023/04/10 02:39:08;;;;;;;13.13;11.83;;;;;;;10.34;46.67;98636.09;8409481;28;20520;-70
2023/04/10 02:43:11;;;;;;;14.17;12.77;;;;;;;10.28;47.09;98631.91;8409917;28;20421;-70
2023/04/10 02:47:14;;;;;;;14.40;13.00;;;;;;;10.04;47.96;98638.72;8409665;28;20244;-70
2023/04/10 02:51:18;;;;;;;13.97;12.63;;;;;;;10.11;47.13;98629.00;8409502;28;20235;-71
2023/04/10 02:55:21;;;;;;;13.43;12.13;;;;;;;9.90;47.57;98633.97;8409208;28;20239;-70
2023/04/10 02:59:24;;;;;;;13.90;12.50;;;;;;;9.90;47.69;98633.09;8409980;28;20241;-69
2023/04/10 03:03:27;;;;;;;14.90;13.50;;;;;;;9.80;47.83;98637.72;8415429;28;20220;-70
2023/04/10 03:07:32;;;;;;;13.40;12.10;;;;;;;9.91;47.11;98642.59;8415932;28;20225;-70
2023/04/10 03:11:35;;;;;;;13.60;12.20;;;;;;;9.78;47.18;98639.50;8415459;28;20229;-69
2023/04/10 03:15:38;;;;;;;13.97;12.40;;;;;;;9.78;47.02;98635.19;8415513;28;20230;-70
2023/04/10 03:19:41;;;;;;;13.60;12.30;;;;;;;9.61;47.66;98636.59;8414828;28;20228;-70
2023/04/10 03:23:45;;;;;;;13.67;12.27;;;;;;;9.49;48.00;98632.63;8415286;28;20226;-71
2023/04/10 03:27:47;;;;;;;14.17;12.77;;;;;;;9.48;48.28;98636.97;8415022;28;20243;-71
2023/04/10 03:31:50;;;;;;;14.20;12.90;;;;;;;9.53;47.80;98624.72;8414818;28;20224;-70
2023/04/10 03:35:53;;;;;;;13.07;11.77;;;;;;;9.52;48.10;98637.69;8415002;28;20234;-70
2023/04/10 03:39:57;;;;;;;13.77;12.37;;;;;;;9.62;47.77;98622.78;8414926;28;20233;-70
2023/04/10 03:44:02;;;;;;;13.20;11.97;;;;;;;9.46;47.82;98618.06;8414849;28;20243;-70
2023/04/10 03:48:05;;;;;;;14.33;12.90;;;;;;;9.35;48.33;98614.94;8414398;28;20224;-71
2023/04/10 03:52:08;;;;;;;13.70;12.40;;;;;;;9.41;47.78;98612.19;8413802;28;20227;-70
2023/04/10 03:56:12;;;;;;;13.07;11.87;;;;;;;9.48;47.60;98620.59;8414537;28;20232;-70
2023/04/10 04:00:16;;;;;;;12.80;11.50;;;;;;;9.14;47.55;98603.50;8414047;28;20254;-70
2023/04/10 04:04:19;;;;;;;13.33;11.93;;;;;;;9.27;47.62;98620.34;8413770;28;20252;-71
2023/04/10 04:08:24;;;;;;;14.20;12.70;;;;;;;9.29;47.67;98621.13;8413910;28;20232;-70
2023/04/10 04:12:28;;;;;;;13.60;12.30;;;;;;;9.16;48.19;98618.06;8413689;28;20228;-70
2023/04/10 04:16:31;;;;;;;13.93;12.63;;;;;;;9.24;48.48;98620.41;8413821;28;20231;-70
2023/04/10 04:20:34;;;;;;;13.30;12.00;;;;;;;9.17;48.41;98624.91;8413547;28;20270;-70
2023/04/10 04:24:37;;;;;;;14.70;12.87;;;;;;;9.30;47.91;98627.97;8413265;28;20289;-70
2023/04/10 04:28:41;;;;;;;14.97;13.47;;;;;;;9.18;48.05;98624.03;8413744;28;20239;-70
2023/04/10 04:32:44;;;;;;;14.37;12.87;;;;;;;9.18;47.67;98621.44;8413260;28;20224;-71
2023/04/10 04:36:47;;;;;;;13.33;12.03;;;;;;;9.03;47.50;98619.28;8413030;28;20581;-70
2023/04/10 04:40:50;;;;;;;13.73;12.40;;;;;;;9.05;47.79;98638.16;8412972;28;20232;-70
2023/04/10 04:44:54;;;;;;;13.73;12.27;;;;;;;8.95;48.27;98645.31;8412789;28;20235;-71
2023/04/10 04:48:57;;;;;;;13.77;12.47;;;;;;;9.08;47.76;98652.72;8412454;28;20363;-70
2023/04/10 04:52:59;;;;;;;14.63;13.13;;;;;;;9.01;48.17;98652.06;8412890;28;20228;-70
2023/04/10 04:57:02;;;;;;;14.23;12.83;;;;;;;8.52;48.14;98575.91;8412622;28;20239;-71
2023/04/10 05:01:07;;;;;;;13.73;12.43;;;;;;;9.03;48.33;98655.44;8412512;28;20232;-71
2023/04/10 05:05:10;;;;;;;24.47;21.87;;;;;;;9.12;48.39;98665.53;8411788;28;20299;-70
2023/04/10 05:09:13;;;;;;;18.97;17.00;;;;;;;8.48;49.04;98603.53;8411994;28;20312;-71
2023/04/10 05:13:16;;;;;;;17.13;15.50;;;;;;;9.19;48.43;98661.03;8411496;28;20228;-71
2023/04/10 05:17:21;;;;;;;15.47;13.90;;;;;;;9.28;48.99;98655.63;8411666;28;20235;-71
2023/04/10 05:21:24;;;;;;;15.80;14.20;;;;;;;9.31;48.40;98652.09;8411681;28;20508;-71
2023/04/10 05:25:27;;;;;;;13.77;12.37;;;;;;;9.56;48.13;98647.09;8411723;28;20415;-71
2023/04/10 05:29:30;;;;;;;17.77;12.93;;;;;;;9.81;47.53;98641.19;8411878;28;20227;-71
2023/04/10 05:33:34;;;;;;;13.90;12.57;;;;;;;9.90;48.24;98641.75;8411177;28;20223;-71
2023/04/10 05:37:37;;;;;;;14.70;13.30;;;;;;;10.12;48.49;98643.66;8411096;28;20474;-72
2023/04/10 05:41:40;;;;;;;15.80;14.20;;;;;;;10.70;47.63;98652.13;8411288;28;20236;-72
2023/04/10 05:45:44;;;;;;;16.00;14.40;;;;;;;10.68;48.06;98650.47;8410845;28;20243;-72
2023/04/10 05:49:48;;;;;;;16.37;14.77;;;;;;;10.18;49.28;98646.03;8410938;28;20226;-71
2023/04/10 05:53:51;;;;;;;15.60;14.07;;;;;;;10.74;48.75;98658.91;8410996;28;20232;-72
2023/04/10 05:57:53;;;;;;;16.37;14.67;;;;;;;10.68;48.51;98661.72;8410781;28;20241;-71
2023/04/10 06:01:56;;;;;;;15.67;14.13;;;;;;;11.04;47.08;98663.94;8410480;28;20227;-72
2023/04/10 06:06:02;;;;;;;14.87;13.47;;;;;;;11.62;46.61;98657.53;8410315;28;20227;-72
2023/04/10 06:10:06;;;;;;;15.40;13.90;;;;;;;11.44;45.89;98659.91;8410576;28;20385;-72
2023/04/10 06:14:09;;;;;;;14.57;13.17;;;;;;;11.92;45.42;98651.19;8410071;28;20254;-71
2023/04/10 06:18:11;;;;;;;14.70;13.13;;;;;;;11.90;45.36;98646.97;8410543;28;20236;-72
2023/04/10 06:22:15;;;;;;;15.03;13.63;;;;;;;11.89;45.62;98646.13;8409790;28;20412;-72
2023/04/10 06:26:18;;;;;;;15.83;14.10;;;;;;;11.84;44.71;98577.97;8409210;28;20228;-71
2023/04/10 06:30:21;;;;;;;15.10;13.70;;;;;;;11.32;48.00;98640.44;8410062;28;20346;-72
2023/04/10 06:34:24;;;;;;;14.60;13.20;;;;;;;12.18;45.50;98641.53;8409627;28;20228;-72
2023/04/10 06:38:28;;;;;;;15.57;14.03;;;;;;;12.45;45.28;98643.91;8416021;28;20235;-72
2023/04/10 06:42:31;;;;;;;15.27;13.83;;;;;;;13.00;43.88;98651.13;8416603;28;20346;-72
2023/04/10 06:46:34;;;;;;;15.27;13.73;;;;;;;12.40;44.70;98649.31;8416394;28;20216;-71
2023/04/10 06:50:40;;;;;;;15.37;13.87;;;;;;;13.46;43.53;98650.00;8416166;28;20216;-71
2023/04/10 06:54:45;;;;;;;14.93;13.43;;;;;;;13.83;42.23;98645.69;8398623;28;20519;-71
2023/04/10 06:58:48;;;;;;;13.90;12.60;;;;;;;13.39;43.67;98645.13;8416021;28;20555;-71
2023/04/10 07:02:51;;;;;;;14.47;13.17;;;;;;;13.90;43.24;98641.03;8415848;28;20243;-71
2023/04/10 07:06:53;;;;;;;14.73;13.33;;;;;;;14.06;42.39;98635.94;8416133;28;20220;-72
2023/04/10 07:10:58;;;;;;;14.90;13.50;;;;;;;12.64;45.45;98641.38;8416176;28;20529;-72
2023/04/10 07:15:01;;;;;;;14.53;13.10;;;;;;;13.47;43.92;98640.41;8416191;28;20220;-74
2023/04/10 07:19:04;;;;;;;16.23;14.63;;;;;;;12.90;46.17;98640.28;8415568;28;20255;-72
2023/04/10 07:23:06;;;;;;;15.57;14.07;;;;;;;13.48;43.96;98624.75;8415012;28;20229;-71
2023/04/10 07:27:11;;;;;;;15.80;14.20;;;;;;;12.64;46.32;98620.59;8415877;28;20235;-72
2023/04/10 07:31:14;;;;;;;16.60;15.00;;;;;;;12.00;47.17;98621.50;8415569;28;20274;-73
2023/04/10 07:35:17;;;;;;;15.37;13.87;;;;;;;14.06;43.38;98615.09;8415653;28;20528;-72
2023/04/10 07:39:19;;;;;;;16.10;14.60;;;;;;;13.59;44.09;98616.41;8414917;28;20328;-72
2023/04/10 07:43:24;;;;;;;14.77;13.37;;;;;;;13.62;44.37;98608.47;8414792;28;20240;-72
2023/04/10 07:47:27;;;;;;;16.37;14.67;;;;;;;14.92;41.89;98613.44;8414359;28;20217;-72
2023/04/10 07:51:30;;;;;;;14.70;13.27;;;;;;;14.47;42.47;98623.50;8414248;28;20230;-72
2023/04/10 07:55:37;;;;;;;13.93;12.63;;;;;;;14.86;41.39;98629.41;8414696;28;20541;-72
2023/04/10 07:59:42;;;;;;;23.03;12.30;;;;;;;15.63;40.30;98613.16;8413973;28;20395;-72
2023/04/10 08:03:46;;;;;;;13.77;12.57;;;;;;;15.93;38.42;98603.72;8414015;28;20225;-73
2023/04/10 08:07:49;;;;;;;14.07;12.77;;;;;;;15.96;38.48;98603.56;8414512;28;20322;-73
2023/04/10 08:11:52;;;;;;;13.57;12.27;;;;;;;16.15;38.49;98612.06;8414183;28;20289;-73
2023/04/10 08:15:56;;;;;;;12.50;11.40;;;;;;;15.88;38.91;98621.41;8414306;28;20223;-73
2023/04/10 08:19:59;;;;;;;12.60;11.47;;;;;;;16.34;37.20;98611.84;8413692;28;20232;-73
2023/04/10 08:24:03;;;;;;;12.40;11.30;;;;;;;16.19;37.88;98612.72;8413343;28;20225;-73
2023/04/10 08:28:06;;;;;;;12.90;11.70;;;;;;;15.12;38.82;98628.06;8413108;28;20290;-70
2023/04/10 08:32:10;;;;;;;12.40;11.30;;;;;;;14.89;39.66;98618.84;8413037;28;20220;-72
2023/04/10 08:36:14;;;;;;;12.07;10.97;;;;;;;14.89;40.31;98616.22;8412801;28;20392;-73
2023/04/10 08:40:20;;;;;;;12.10;11.00;;;;;;;16.23;36.91;98609.00;8413422;28;20290;-73
2023/04/10 08:44:23;;;;;;;11.87;10.77;;;;;;;16.17;37.18;98609.34;8412956;28;20412;-74
2023/04/10 08:48:32;;;;;;;11.03;10.03;;;;;;;17.38;35.13;98607.41;8413401;28;20239;-73
2023/04/10 08:52:36;;;;;;;12.13;11.03;;;;;;;17.03;35.89;98613.97;8413458;28;20226;-71
2023/04/10 08:56:40;;;;;;;10.97;9.97;;;;;;;17.59;34.42;98618.31;8412932;28;20229;-71
2023/04/10 09:00:43;;;;;;;11.30;10.17;;;;;;;17.49;35.62;98608.50;8412139;28;20231;-71
2023/04/10 09:04:49;;;;;;;11.60;10.70;;;;;;;18.13;34.64;98596.56;8410683;28;20424;-71
2023/04/10 09:08:52;;;;;;;11.60;10.60;;;;;;;19.23;32.76;98592.72;8412480;28;20243;-73
2023/04/10 09:12:56;;;;;;;9.83;9.03;;;;;;;19.35;32.20;98593.63;8411987;28;20228;-72
2023/04/10 09:17:16;;;;;;;10.87;9.97;;;;;;;18.38;32.52;98562.66;8411765;28;20224;-70
2023/04/10 09:21:26;;;;;;;10.50;9.60;;;;;;;17.31;34.56;98564.22;8411345;28;20232;-70
2023/04/10 09:25:31;;;;;;;10.30;9.50;;;;;;;17.82;33.59;98565.41;8411323;28;20370;-73
2023/04/10 09:29:42;;;;;;;10.90;9.80;;;;;;;16.84;34.82;98565.34;8411343;28;20399;-70
2023/04/10 09:33:45;;;;;;;10.73;9.03;;;;;;;18.05;32.90;98559.56;8411225;28;20508;-70
2023/04/10 09:37:49;;;;;;;9.23;8.43;;;;;;;18.32;32.45;98556.03;8411648;28;20228;-71
2023/04/10 09:41:54;;;;;;;9.50;8.70;;;;;;;19.47;31.04;98555.97;8410677;28;20231;-71
2023/04/10 09:45:57;;;;;;;9.23;8.43;;;;;;;19.50;30.80;98542.63;8411027;28;20559;-71
2023/04/10 09:50:00;;;;;;;8.37;7.77;;;;;;;18.68;31.62;98541.41;8410534;28;20232;-71
2023/04/10 09:54:06;;;;;;;8.40;7.70;;;;;;;18.92;30.77;98534.50;8411012;28;20288;-72
2023/04/10 09:58:11;;;;;;;7.60;7.00;;;;;;;19.80;31.55;98524.78;8409737;28;20485;-71
2023/04/10 10:02:14;;;;;;;7.00;6.50;;;;;;;20.21;29.33;98513.00;8410398;28;20235;-71
2023/04/10 10:06:17;;;;;;;7.97;7.30;;;;;;;17.41;37.93;98506.88;8410406;28;20229;-72
2023/04/10 10:10:22;;;;;;;8.23;7.53;;;;;;;17.37;32.57;98489.69;8410459;28;20232;-71
2023/04/10 10:14:26;;;;;;;7.70;7.10;;;;;;;18.62;31.73;98490.19;8410321;28;20239;-71
2023/04/10 10:18:35;;;;;;;9.13;6.60;;;;;;;18.90;30.71;98485.66;8410374;28;20234;-71
2023/04/10 10:22:38;;;;;;;8.57;7.87;;;;;;;17.59;32.38;98476.91;8409925;28;20236;-71
2023/04/10 10:26:43;;;;;;;7.53;6.83;;;;;;;18.43;32.19;98484.50;8410190;28;20515;-70
2023/04/10 10:30:47;;;;;;;6.83;6.33;;;;;;;18.93;31.03;98473.16;8409578;28;20235;-70
2023/04/10 10:34:52;;;;;;;7.30;6.80;;;;;;;19.00;29.80;98465.72;8409578;28;20316;-71
2023/04/10 10:39:08;;;;;;;6.93;5.00;;;;;;;19.90;31.70;98450.41;8409551;28;20227;-74
2023/04/10 10:43:16;;;;;;;7.00;6.50;;;;;;;18.25;30.14;98458.59;8408877;28;20431;-75
2023/04/10 10:47:22;;;;;;;7.27;6.73;;;;;;;19.03;29.79;98454.16;8409338;28;20240;-75
2023/04/10 10:51:42;;;;;;;7.07;6.47;;;;;;;19.64;28.95;98448.84;8409050;28;20247;-73
2023/04/10 10:55:45;;;;;;;7.23;6.53;;;;;;;19.53;29.22;98447.00;8409633;28;20232;-74
2023/04/10 10:59:58;;;;;;;6.27;5.77;;;;;;;19.88;29.40;98433.09;8410257;28;20229;-75
2023/04/10 11:04:42;;;;;;;6.53;6.03;;;;;;;18.63;30.25;98426.28;8409143;28;20232;-75
2023/04/10 11:08:46;;;;;;;5.40;5.00;;;;;;;18.88;28.77;98421.97;8409460;28;20220;-74
2023/04/10 11:13:16;;;;;;;4.83;4.53;;;;;;;19.36;28.69;98408.84;8409609;28;20232;-74
2023/04/10 11:17:46;;;;;;;4.57;4.27;;;;;;;20.25;27.59;98406.63;8409795;28;20232;-72
2023/04/10 11:22:04;;;;;;;5.60;5.20;;;;;;;19.75;27.79;98395.53;8411245;28;20228;-71
2023/04/10 11:26:06;;;;;;;4.93;4.53;;;;;;;21.37;26.58;98404.81;8415741;28;20343;-70
2023/04/10 11:30:32;;;;;;;4.70;4.40;;;;;;;20.37;26.53;98391.66;8415375;28;20244;-70
2023/04/10 11:34:44;;;;;;;4.73;4.43;;;;;;;19.47;27.46;98382.63;8413582;28;20237;-71
2023/04/10 11:38:55;;;;;;;5.27;4.87;;;;;;;19.58;28.07;98378.38;8415561;28;20231;-72
2023/04/10 11:43:12;;;;;;;5.43;5.03;;;;;;;18.97;28.29;98375.84;8415168;28;20224;-71
2023/04/10 11:47:15;;;;;;;4.90;4.60;;;;;;;18.91;27.97;98372.72;8414890;28;20520;-70
2023/04/10 11:51:22;;;;;;;4.80;4.50;;;;;;;20.13;27.04;98376.84;8414966;28;20546;-71
2023/04/10 11:55:37;;;;;;;5.43;5.03;;;;;;;20.18;26.90;98364.19;8414721;28;20234;-72
2023/04/10 11:59:40;;;;;;;4.93;4.63;;;;;;;20.42;26.25;98361.44;8414485;28;20253;-71
2023/04/10 12:03:44;;;;;;;4.27;3.97;;;;;;;20.90;25.02;98365.56;8414824;28;20249;-71
2023/04/10 12:07:50;;;;;;;4.17;3.87;;;;;;;20.11;25.57;98324.38;8414766;28;20523;-72
2023/04/10 12:11:54;;;;;;;4.60;4.30;;;;;;;20.04;26.47;98351.28;8414202;28;20383;-71
2023/04/10 12:16:03;;;;;;;4.83;4.43;;;;;;;19.84;26.66;98347.56;8413979;28;20237;-73
2023/04/10 12:20:06;;;;;;;3.90;3.70;;;;;;;20.08;27.11;98337.75;8414067;28;20228;-72
2023/04/10 12:24:11;;;;;;;3.60;3.40;;;;;;;20.92;25.03;98339.13;8413825;28;20541;-72
2023/04/10 12:28:17;;;;;;;4.00;3.70;;;;;;;20.19;25.80;98336.94;8414226;28;20240;-73
2023/04/10 12:32:21;;;;;;;4.17;3.87;;;;;;;20.00;26.18;98321.75;8413640;28;20239;-72
2023/04/10 12:36:27;;;;;;;4.63;4.33;;;;;;;19.74;26.60;98310.59;8413473;28;20277;-69
2023/04/10 12:40:35;;;;;;;3.97;3.67;;;;;;;19.77;27.33;98301.69;8413387;28;20232;-73
2023/04/10 12:44:50;;;;;;;4.40;4.10;;;;;;;18.70;27.77;98319.16;8413048;28;20234;-70
2023/04/10 12:48:53;;;;;;;3.50;3.30;;;;;;;19.91;26.31;98298.81;8413089;28;20231;-72
2023/04/10 12:53:07;;;;;;;3.70;3.50;;;;;;;20.21;26.18;98285.06;8413060;28;20232;-70
2023/04/10 12:57:26;;;;;;;4.43;4.13;;;;;;;20.39;26.64;98281.91;8412246;28;20482;-72
2023/04/10 13:01:28;;;;;;;4.30;4.00;;;;;;;19.61;26.71;98271.28;8412944;28;20237;-73
2023/04/10 13:05:34;;;;;;;4.23;3.93;;;;;;;20.67;26.22;98281.41;8413659;28;20244;-73
2023/04/10 13:09:38;;;;;;;3.90;3.67;;;;;;;20.57;25.32;98300.69;8413136;28;20292;-71
2023/04/10 13:13:45;;;;;;;4.13;3.83;;;;;;;20.40;24.52;98273.09;8411565;28;20217;-72
2023/04/10 13:17:50;;;;;;;4.03;3.73;;;;;;;19.37;26.68;98262.66;8412566;28;20224;-72
2023/04/10 13:21:53;;;;;;;4.07;3.70;;;;;;;19.82;25.93;98260.94;8412018;28;20529;-71
2023/04/10 13:25:57;;;;;;;3.40;3.20;;;;;;;20.42;25.16;98244.88;8411257;28;20228;-73
2023/04/10 13:30:02;;;;;;;4.43;4.13;;;;;;;19.70;25.80;98235.56;8410976;28;20223;-71
2023/04/10 13:34:04;;;;;;;4.13;3.83;;;;;;;20.86;25.39;98227.28;8411041;28;20218;-71
2023/04/10 13:38:08;;;;;;;4.30;4.00;;;;;;;19.83;26.11;98227.63;8411092;28;20224;-71
2023/04/10 13:42:11;;;;;;;3.93;3.70;;;;;;;19.83;25.70;98223.19;8411895;28;20220;-72
2023/04/10 13:46:16;;;;;;;4.40;4.10;;;;;;;19.91;25.97;98204.19;8410474;28;20260;-72
2023/04/10 13:50:19;;;;;;;3.93;3.63;;;;;;;19.48;26.49;98203.09;8410752;28;20408;-72
2023/04/10 13:54:21;;;;;;;3.60;3.40;;;;;;;20.22;26.13;98199.13;8410823;28;20545;-71
2023/04/10 13:58:25;;;;;;;4.33;3.93;;;;;;;20.25;26.16;98185.72;8410746;28;20236;-71
2023/04/10 14:02:29;;;;;;;4.67;4.37;;;;;;;19.47;26.64;98177.78;8409953;28;20220;-72
2023/04/10 14:06:34;;;;;;;4.30;3.90;;;;;;;19.78;26.25;98182.47;8410620;28;20536;-72
2023/04/10 14:10:38;;;;;;;4.17;3.90;;;;;;;20.11;26.33;98174.53;8410716;28;20217;-72
2023/04/10 14:14:41;;;;;;;4.20;3.90;;;;;;;19.49;26.89;98161.91;8410709;28;20533;-71
2023/04/10 14:18:45;;;;;;;3.90;3.60;;;;;;;19.11;27.26;98158.69;8410583;28;20235;-71
2023/04/10 14:22:50;;;;;;;3.80;3.50;;;;;;;19.47;26.95;98153.31;8410479;28;20247;-72
2023/04/10 14:26:56;;;;;;;3.93;3.63;;;;;;;19.12;27.11;98154.25;8408873;28;20235;-72
2023/04/10 14:30:59;;;;;;;3.40;3.20;;;;;;;19.14;27.45;98152.34;8410302;28;20224;-72
2023/04/10 14:35:04;;;;;;;3.63;3.33;;;;;;;18.88;27.77;98151.69;8409577;28;20229;-72
2023/04/10 14:39:07;;;;;;;3.87;3.57;;;;;;;18.31;28.30;98154.06;8409407;28;20246;-71
2023/04/10 14:43:10;;;;;;;3.93;3.57;;;;;;;18.60;28.14;98148.50;8409558;28;20243;-71
2023/04/10 14:47:13;;;;;;;3.77;3.47;;;;;;;18.57;27.86;98138.22;8409780;28;20537;-71
2023/04/10 14:51:18;;;;;;;3.60;3.37;;;;;;;19.40;27.68;98125.84;8409904;28;20236;-71
2023/04/10 14:55:21;;;;;;;3.77;3.47;;;;;;;18.78;27.90;98122.66;8409892;28;20232;-71
2023/04/10 14:59:25;;;;;;;4.03;3.20;;;;;;;18.38;28.34;98123.00;8415392;28;20319;-72
2023/04/10 15:03:28;;;;;;;3.30;3.10;;;;;;;18.97;27.41;98121.31;8416330;28;20531;-72
2023/04/10 15:07:32;;;;;;;3.00;2.80;;;;;;;18.67;27.41;98106.91;8416415;28;20236;-71
2023/04/10 15:11:35;;;;;;;3.20;3.00;;;;;;;18.68;27.87;98113.81;8416119;28;20426;-72
2023/04/10 15:15:37;;;;;;;3.47;3.27;;;;;;;18.74;26.80;98111.56;8416298;28;20277;-72
2023/04/10 15:19:40;;;;;;;3.23;3.03;;;;;;;18.65;27.35;98103.56;8415917;28;20418;-72
2023/04/10 15:23:47;;;;;;;3.43;3.23;;;;;;;19.05;27.44;98096.13;8415879;28;20231;-72
2023/04/10 15:27:50;;;;;;;3.30;3.10;;;;;;;18.43;27.89;98073.69;8415965;28;20225;-72
2023/04/10 15:31:54;;;;;;;3.93;3.67;;;;;;;17.72;28.49;98070.13;8415755;28;20220;-72
2023/04/10 15:35:57;;;;;;;3.60;3.30;;;;;;;18.32;27.46;98084.16;8415668;28;20409;-71
2023/04/10 15:40:03;;;;;;;4.77;4.37;;;;;;;18.52;26.55;98069.53;8415090;28;20255;-71
2023/04/10 15:44:06;;;;;;;3.70;3.40;;;;;;;18.56;26.47;98071.81;8415764;28;20235;-71
2023/04/10 15:48:09;;;;;;;3.47;3.27;;;;;;;18.16;27.05;98069.56;8414797;28;20413;-72
2023/04/10 15:52:12;;;;;;;3.87;3.60;;;;;;;18.49;26.56;98070.63;8415344;28;20523;-72
2023/04/10 15:56:18;;;;;;;3.80;3.50;;;;;;;18.40;26.72;98063.44;8415298;28;20243;-73
2023/04/10 16:00:21;;;;;;;4.07;3.77;;;;;;;18.00;27.09;98058.53;8414807;28;20223;-72
2023/04/10 16:04:24;;;;;;;3.53;3.33;;;;;;;17.38;27.63;98049.81;8414287;28;20228;-71
2023/04/10 16:08:27;;;;;;;3.70;3.40;;;;;;;18.07;27.48;98061.53;8414694;28;20228;-72
2023/04/10 16:12:31;;;;;;;3.60;3.40;;;;;;;17.84;27.48;98061.44;8414604;28;20402;-72
2023/04/10 16:16:34;;;;;;;4.03;3.63;;;;;;;17.93;27.55;98058.16;8414789;28;20512;-72
2023/04/10 16:20:40;;;;;;;926.03;578.77;;;;;;;18.03;28.71;98046.97;8414015;28;20227;-72
2023/04/10 16:24:43;;;;;;;656.70;415.63;;;;;;;17.76;28.02;98043.63;8414302;28;20338;-71
2023/04/10 16:28:47;;;;;;;1599.83;857.70;;;;;;;17.93;30.29;98036.34;8414494;28;20231;-71
2023/04/10 16:32:50;;;;;;;1747.50;913.73;;;;;;;18.03;29.58;98028.63;8413655;28;20220;-71
2023/04/10 16:36:53;;;;;;;208.30;123.80;;;;;;;17.51;28.25;98025.38;8413983;28;20565;-72
2023/04/10 16:40:57;;;;;;;413.17;255.67;;;;;;;17.62;28.86;98016.75;8413371;28;20228;-71
2023/04/10 16:45:07;;;;;;;84.80;54.53;;;;;;;18.03;27.97;98011.16;8413535;28;20539;-71
2023/04/10 16:49:12;;;;;;;64.73;39.93;;;;;;;17.71;27.86;98014.31;8413320;28;20239;-72
2023/04/10 16:53:14;;;;;;;86.35;56.30;;;;;;;18.07;28.20;98006.50;8411257;28;20412;-72
2023/04/10 16:57:17;;;;;;;325.13;187.63;;;;;;;17.89;29.93;97995.59;8413552;28;20246;-72
2023/04/10 17:01:23;;;;;;;29.37;19.93;;;;;;;17.18;27.95;97992.81;8413234;28;20236;-71
2023/04/10 17:05:33;;;;;;;3.37;3.17;;;;;;;17.11;27.73;97979.31;8413056;28;20337;-73
2023/04/10 17:09:36;;;;;;;3.40;3.20;;;;;;;17.28;27.55;97988.59;8413167;28;20244;-72
2023/04/10 17:13:39;;;;;;;3.70;3.40;;;;;;;17.19;27.73;97977.00;8412494;28;20307;-72
2023/04/10 17:17:43;;;;;;;3.60;3.40;;;;;;;17.28;27.76;97969.44;8412316;28;20233;-73
2023/04/10 17:21:46;;;;;;;3.83;3.53;;;;;;;17.10;28.16;97954.13;8411863;28;20243;-71
2023/04/10 17:25:49;;;;;;;10.90;8.40;;;;;;;16.69;28.67;97955.19;8412068;28;20526;-71
2023/04/10 17:29:52;;;;;;;36.60;22.43;;;;;;;16.80;29.41;97946.63;8412172;28;20522;-74
2023/04/10 17:33:57;;;;;;;12.13;9.43;;;;;;;16.73;29.31;97934.91;8412067;28;20228;-73
2023/04/10 17:38:00;;;;;;;3.30;3.10;;;;;;;16.56;29.29;97925.63;8411823;28;20253;-72
2023/04/10 17:42:02;;;;;;;4.00;3.70;;;;;;;16.95;29.00;97939.50;8411446;28;20434;-73
2023/04/10 17:46:09;;;;;;;4.20;3.90;;;;;;;16.66;29.10;97939.75;8411639;28;20231;-71
2023/04/10 17:50:13;;;;;;;4.43;4.03;;;;;;;16.73;29.26;97947.97;8410858;28;20299;-72
2023/04/10 17:54:16;;;;;;;4.40;4.10;;;;;;;16.22;29.64;97904.41;8411317;28;20244;-71
2023/04/10 17:58:22;;;;;;;3.93;3.63;;;;;;;16.30;30.24;97948.34;8410880;28;20340;-71
2023/04/10 18:02:25;;;;;;;3.67;3.43;;;;;;;16.21;30.78;97942.78;8410918;28;20230;-72
2023/04/10 18:06:30;;;;;;;4.13;3.83;;;;;;;16.34;30.91;97934.94;8411414;28;20306;-72
2023/04/10 18:10:33;;;;;;;4.40;4.10;;;;;;;15.91;32.07;97929.16;8411685;28;20225;-72
2023/04/10 18:14:36;;;;;;;4.70;4.37;;;;;;;16.20;32.04;97922.84;8411374;28;20222;-72
2023/04/10 18:18:40;;;;;;;4.57;4.23;;;;;;;15.99;32.81;97916.44;8410423;28;20269;-72
2023/04/10 18:22:45;;;;;;;4.83;4.43;;;;;;;15.57;33.64;97882.63;8410240;28;20234;-72
2023/04/10 18:26:48;;;;;;;4.77;4.37;;;;;;;15.73;34.34;97894.66;8410760;28;20232;-72
2023/04/10 18:30:53;;;;;;;5.60;5.10;;;;;;;15.49;34.92;97895.31;8411041;28;20228;-72
2023/04/10 18:34:56;;;;;;;5.30;4.90;;;;;;;15.39;35.42;97899.47;8411250;28;20235;-71
2023/04/10 18:39:00;;;;;;;5.37;4.97;;;;;;;15.70;35.10;97897.47;8411235;28;20431;-72
2023/04/10 18:43:04;;;;;;;5.83;5.23;;;;;;;15.06;36.17;97892.91;8411352;28;20426;-74
2023/04/10 18:47:09;;;;;;;5.63;5.13;;;;;;;15.16;36.31;97885.31;8410481;28;20227;-72
2023/04/10 18:51:12;;;;;;;5.90;5.40;;;;;;;15.59;35.42;97885.09;8409247;28;20228;-71
2023/04/10 18:55:18;;;;;;;5.30;4.80;;;;;;;15.55;35.59;97876.63;8410378;28;20583;-72
2023/04/10 18:59:21;;;;;;;5.20;4.80;;;;;;;15.59;35.56;97875.53;8409689;28;20228;-73